createdAt,value
2018-08-22T00:00:56.243Z,9.50
2018-08-22T00:03:24.784Z,9.73
2018-08-22T00:05:53.299Z,9.60
2018-08-22T00:08:53.451Z,10.13
2018-08-22T00:11:21.972Z,10.07
2018-08-22T00:13:50.449Z,10.27
2018-08-22T00:16:18.959Z,11.83
2018-08-22T00:18:47.504Z,10.33
2018-08-22T00:21:16.103Z,10.43
2018-08-22T00:23:44.748Z,9.37
2018-08-22T00:26:13.270Z,10.27
2018-08-22T00:28:41.772Z,10.00
2018-08-22T00:31:10.564Z,9.70
2018-08-22T00:33:39.152Z,9.67
2018-08-22T00:36:14.399Z,10.17
2018-08-22T00:38:42.899Z,10.10
2018-08-22T00:41:11.393Z,11.00
2018-08-22T00:43:40.019Z,10.57
2018-08-22T00:46:08.515Z,10.60
2018-08-22T00:48:37.010Z,10.43
2018-08-22T00:51:05.524Z,10.80
2018-08-22T00:53:34.110Z,10.97
2018-08-22T00:56:03.504Z,10.53
2018-08-22T00:58:32.025Z,9.93
2018-08-22T01:01:00.588Z,10.30
2018-08-22T01:03:29.224Z,10.67
2018-08-22T01:05:57.768Z,11.10
2018-08-22T01:08:26.390Z,11.57
2018-08-22T01:10:54.916Z,12.00
2018-08-22T01:13:23.467Z,11.87
2018-08-22T01:15:51.973Z,12.20
2018-08-22T01:18:20.495Z,11.10
2018-08-22T01:20:49.022Z,11.80
2018-08-22T01:23:17.548Z,11.33
2018-08-22T01:25:46.034Z,11.00
2018-08-22T01:28:14.551Z,11.33
2018-08-22T01:30:43.038Z,11.60
2018-08-22T01:33:11.509Z,11.23
2018-08-22T01:35:40.049Z,11.83
2018-08-22T01:38:08.561Z,10.83
2018-08-22T01:40:37.141Z,11.90
2018-08-22T01:43:05.721Z,11.97
2018-08-22T01:45:34.346Z,11.93
2018-08-22T01:48:03.132Z,11.73
2018-08-22T01:50:31.768Z,11.53
2018-08-22T01:53:00.287Z,10.80
2018-08-22T01:55:29.800Z,11.57
2018-08-22T01:57:58.441Z,11.53
2018-08-22T02:00:27.064Z,11.43
2018-08-22T02:02:56.411Z,12.07
2018-08-22T02:05:24.979Z,11.77
2018-08-22T02:07:53.517Z,11.33
2018-08-22T02:10:22.439Z,11.07
2018-08-22T02:12:50.910Z,11.17
2018-08-22T02:15:19.564Z,11.70
2018-08-22T02:17:48.136Z,11.00
2018-08-22T02:20:16.624Z,11.30
2018-08-22T02:22:45.139Z,10.47
2018-08-22T02:25:13.750Z,11.20
2018-08-22T02:27:43.130Z,11.50
2018-08-22T02:30:11.599Z,10.57
2018-08-22T02:32:40.141Z,11.43
2018-08-22T02:35:08.916Z,11.13
2018-08-22T02:37:37.401Z,11.60
2018-08-22T02:40:06.057Z,11.67
2018-08-22T02:42:34.606Z,12.53
2018-08-22T02:45:03.502Z,12.07
2018-08-22T02:47:33.996Z,11.53
2018-08-22T02:50:02.480Z,11.37
2018-08-22T02:52:30.992Z,11.60
2018-08-22T02:55:01.638Z,10.87
2018-08-22T02:57:30.163Z,11.23
2018-08-22T02:59:58.714Z,11.13
2018-08-22T03:02:27.186Z,11.80
2018-08-22T03:04:55.728Z,11.77
2018-08-22T03:07:24.235Z,11.57
2018-08-22T03:09:52.744Z,11.83
2018-08-22T03:12:21.918Z,12.30
2018-08-22T03:14:50.411Z,11.17
2018-08-22T03:17:20.015Z,10.87
2018-08-22T03:19:48.563Z,11.63
2018-08-22T03:22:17.262Z,12.10
2018-08-22T03:24:45.942Z,10.50
2018-08-22T03:27:15.866Z,11.03
2018-08-22T03:29:44.494Z,10.87
2018-08-22T03:32:13.102Z,10.73
2018-08-22T03:34:41.701Z,10.83
2018-08-22T03:37:10.278Z,10.37
2018-08-22T03:39:39.196Z,10.53
2018-08-22T03:42:07.905Z,11.17
2018-08-22T03:44:36.506Z,11.57
2018-08-22T03:47:05.022Z,11.63
2018-08-22T03:49:33.644Z,12.17
2018-08-22T03:52:02.632Z,11.37
2018-08-22T03:54:31.148Z,11.07
2018-08-22T03:56:59.635Z,10.93
2018-08-22T03:59:28.140Z,11.30
2018-08-22T04:01:56.638Z,11.27
2018-08-22T04:04:25.166Z,11.30
2018-08-22T04:06:53.708Z,10.77
2018-08-22T04:09:22.182Z,11.53
2018-08-22T04:11:50.681Z,11.43
2018-08-22T04:14:19.362Z,11.50
2018-08-22T04:16:47.832Z,11.53
2018-08-22T04:19:16.308Z,11.13
2018-08-22T04:21:44.841Z,11.43
2018-08-22T04:24:13.377Z,11.33
2018-08-22T04:26:41.855Z,10.80
2018-08-22T04:29:10.455Z,11.60
2018-08-22T04:31:38.969Z,11.70
2018-08-22T04:34:07.446Z,11.67
2018-08-22T04:36:35.968Z,12.20
2018-08-22T04:39:05.875Z,12.33
2018-08-22T04:41:34.405Z,12.23
2018-08-22T04:44:02.931Z,12.20
2018-08-22T04:46:31.419Z,11.47
2018-08-22T04:48:59.935Z,11.13
2018-08-22T04:51:28.408Z,11.57
2018-08-22T04:53:56.928Z,10.77
2018-08-22T04:56:25.690Z,11.10
2018-08-22T04:58:54.173Z,10.63
2018-08-22T05:01:22.707Z,11.27
2018-08-22T05:03:52.111Z,10.83
2018-08-22T05:06:20.613Z,11.57
2018-08-22T05:08:49.124Z,11.57
2018-08-22T05:11:17.649Z,11.33
2018-08-22T05:13:46.193Z,11.13
2018-08-22T05:16:14.672Z,11.53
2018-08-22T05:18:43.188Z,10.93
2018-08-22T05:21:11.692Z,10.77
2018-08-22T05:23:40.220Z,10.60
2018-08-22T05:26:08.754Z,10.57
2018-08-22T05:28:37.401Z,10.87
2018-08-22T05:31:05.879Z,11.70
2018-08-22T05:33:34.460Z,11.27
2018-08-22T05:36:03.032Z,11.37
2018-08-22T05:38:31.544Z,10.60
2018-08-22T05:41:00.196Z,10.77
2018-08-22T05:43:28.713Z,10.30
2018-08-22T05:45:57.240Z,10.87
2018-08-22T05:48:25.711Z,10.80
2018-08-22T05:50:54.405Z,10.80
2018-08-22T05:53:22.904Z,10.27
2018-08-22T05:55:51.850Z,10.60
2018-08-22T05:58:20.404Z,10.07
2018-08-22T06:00:48.957Z,9.93
2018-08-22T06:03:18.015Z,10.33
2018-08-22T06:05:46.708Z,10.30
2018-08-22T06:08:15.262Z,9.37
2018-08-22T06:10:43.826Z,9.30
2018-08-22T06:13:12.417Z,8.60
2018-08-22T06:15:40.902Z,9.23
2018-08-22T06:18:09.490Z,9.70
2018-08-22T06:20:38.018Z,9.23
2018-08-22T06:23:06.752Z,10.03
2018-08-22T06:25:35.476Z,9.03
2018-08-22T06:28:04.059Z,8.83
2018-08-22T06:30:33.709Z,9.50
2018-08-22T06:33:02.242Z,8.63
2018-08-22T06:35:30.763Z,8.83
2018-08-22T06:37:59.235Z,8.33
2018-08-22T06:40:27.737Z,8.20
2018-08-22T06:42:56.277Z,7.87
2018-08-22T06:45:24.813Z,7.97
2018-08-22T06:47:53.366Z,7.73
2018-08-22T06:50:21.930Z,7.13
2018-08-22T06:52:50.697Z,7.67
2018-08-22T06:55:19.192Z,7.83
2018-08-22T06:57:47.757Z,7.63
2018-08-22T07:00:16.288Z,7.03
2018-08-22T07:02:44.884Z,6.83
2018-08-22T07:05:13.415Z,7.23
2018-08-22T07:07:41.893Z,7.37
2018-08-22T07:10:10.589Z,7.77
2018-08-22T07:12:39.118Z,7.13
2018-08-22T07:15:07.983Z,7.20
2018-08-22T07:17:36.494Z,6.87
2018-08-22T07:20:06.040Z,7.07
2018-08-22T07:22:34.781Z,7.77
2018-08-22T07:25:03.805Z,6.97
2018-08-22T07:27:32.286Z,6.60
2018-08-22T07:30:01.571Z,7.57
2018-08-22T07:32:30.255Z,7.67
2018-08-22T07:34:58.901Z,5.97
2018-08-22T07:37:27.498Z,6.53
2018-08-22T07:39:56.075Z,6.67
2018-08-22T07:42:24.604Z,7.93
2018-08-22T07:44:53.137Z,7.80
2018-08-22T07:47:21.975Z,7.67
2018-08-22T07:49:50.496Z,7.33
2018-08-22T07:52:19.296Z,7.60
2018-08-22T07:54:48.336Z,6.20
2018-08-22T07:57:18.245Z,6.33
2018-08-22T07:59:46.813Z,7.07
2018-08-22T08:02:15.314Z,6.80
2018-08-22T08:04:43.837Z,7.20
2018-08-22T08:07:12.430Z,6.90
2018-08-22T08:09:40.957Z,6.93
2018-08-22T08:12:09.560Z,7.10
2018-08-22T08:14:38.053Z,6.27
2018-08-22T08:17:06.676Z,6.20
2018-08-22T08:19:35.337Z,6.20
2018-08-22T08:22:03.912Z,6.50
2018-08-22T08:24:32.410Z,5.70
2018-08-22T08:27:00.997Z,5.90
2018-08-22T08:29:29.583Z,6.23
2018-08-22T08:31:58.158Z,6.00
2018-08-22T08:34:26.648Z,5.43
2018-08-22T08:36:55.471Z,5.47
2018-08-22T08:39:23.989Z,5.93
2018-08-22T08:41:52.510Z,5.70
2018-08-22T08:44:21.225Z,5.97
2018-08-22T08:46:49.838Z,5.40
2018-08-22T08:49:18.353Z,5.60
2018-08-22T08:51:56.741Z,5.23
2018-08-22T08:54:25.247Z,5.87
2018-08-22T08:56:53.880Z,4.80
2018-08-22T08:59:22.617Z,5.23
2018-08-22T09:01:51.250Z,5.80
2018-08-22T09:04:19.780Z,5.97
2018-08-22T09:06:49.212Z,5.80
2018-08-22T09:09:17.841Z,5.00
2018-08-22T09:11:51.633Z,5.90
2018-08-22T09:14:20.192Z,5.97
2018-08-22T09:16:48.969Z,5.40
2018-08-22T09:19:17.454Z,5.50
2018-08-22T09:21:45.955Z,5.97
2018-08-22T09:24:14.783Z,5.60
2018-08-22T09:26:43.575Z,6.60
2018-08-22T09:29:12.482Z,6.43
2018-08-22T09:31:41.240Z,6.27
2018-08-22T09:34:09.825Z,6.00
2018-08-22T09:36:38.300Z,5.20
2018-08-22T09:39:10.065Z,6.87
2018-08-22T09:41:38.581Z,5.87
2018-08-22T09:44:07.779Z,5.50
2018-08-22T09:46:36.817Z,5.43
2018-08-22T09:49:05.465Z,5.73
2018-08-22T09:51:33.969Z,6.30
2018-08-22T09:54:02.523Z,6.03
2018-08-22T09:56:31.023Z,5.80
2018-08-22T09:58:59.674Z,5.73
2018-08-22T10:01:34.696Z,7.03
2018-08-22T10:04:03.317Z,6.93
2018-08-22T10:06:38.849Z,5.50
2018-08-22T10:09:16.736Z,5.60
2018-08-22T10:11:45.414Z,5.90
2018-08-22T10:14:14.404Z,6.27
2018-08-22T10:16:42.956Z,5.97
2018-08-22T10:19:11.601Z,6.17
2018-08-22T10:21:40.153Z,5.70
2018-08-22T10:24:08.985Z,5.03
2018-08-22T10:26:37.512Z,6.27
2018-08-22T10:29:06.012Z,6.77
2018-08-22T10:31:34.576Z,6.63
2018-08-22T10:34:03.225Z,6.93
2018-08-22T10:36:31.776Z,6.50
2018-08-22T10:39:00.313Z,6.80
2018-08-22T10:41:28.805Z,6.90
2018-08-22T10:43:57.297Z,7.37
2018-08-22T10:46:25.889Z,8.17
2018-08-22T10:48:54.393Z,6.57
2018-08-22T10:51:22.867Z,6.33
2018-08-22T10:53:51.411Z,8.33
2018-08-22T10:56:19.964Z,8.00
2018-08-22T10:58:48.510Z,7.60
2018-08-22T11:01:17.209Z,6.93
2018-08-22T11:03:45.695Z,7.00
2018-08-22T11:06:14.238Z,6.93
2018-08-22T11:08:42.836Z,8.47
2018-08-22T11:11:11.377Z,9.30
2018-08-22T11:13:39.965Z,8.67
2018-08-22T11:16:08.640Z,8.53
2018-08-22T11:18:37.607Z,7.03
2018-08-22T11:21:17.457Z,9.67
2018-08-22T11:23:57.166Z,8.43
2018-08-22T11:26:36.834Z,9.13
2018-08-22T11:29:16.664Z,9.13
2018-08-22T11:31:56.300Z,9.53
2018-08-22T11:34:36.224Z,9.70
2018-08-22T11:37:07.658Z,9.43
2018-08-22T11:39:36.167Z,10.33
2018-08-22T11:42:05.160Z,10.03
2018-08-22T11:44:33.955Z,9.20
2018-08-22T11:47:02.604Z,8.43
2018-08-22T11:49:31.781Z,8.20
2018-08-22T11:52:00.660Z,9.47
2018-08-22T11:54:29.707Z,8.80
2018-08-22T11:56:58.256Z,10.23
2018-08-22T11:59:26.774Z,9.80
2018-08-22T12:01:55.468Z,10.60
2018-08-22T12:04:23.932Z,9.53
2018-08-22T12:06:52.757Z,9.80
2018-08-22T12:09:21.428Z,9.43
2018-08-22T12:11:49.929Z,8.93
2018-08-22T12:14:19.375Z,10.53
2018-08-22T12:16:48.519Z,8.70
2018-08-22T12:19:18.103Z,8.93
2018-08-22T12:21:47.134Z,8.73
2018-08-22T12:24:16.419Z,10.17
2018-08-22T12:26:46.866Z,10.00
2018-08-22T12:29:15.924Z,7.57
2018-08-22T12:31:44.892Z,8.73
2018-08-22T12:34:14.024Z,8.40
2018-08-22T12:36:42.565Z,8.60
2018-08-22T12:39:11.132Z,8.00
2018-08-22T12:41:40.317Z,9.07
2018-08-22T12:44:10.246Z,10.17
2018-08-22T12:46:38.773Z,8.50
2018-08-22T12:49:07.388Z,8.70
2018-08-22T12:51:36.022Z,10.90
2018-08-22T12:54:04.586Z,10.27
2018-08-22T12:56:33.238Z,9.30
2018-08-22T12:59:01.776Z,9.77
2018-08-22T13:01:30.280Z,10.60
2018-08-22T13:03:58.808Z,8.80
2018-08-22T13:06:27.380Z,9.23
2018-08-22T13:08:55.924Z,9.37
2018-08-22T13:11:24.577Z,8.67
2018-08-22T13:13:53.164Z,9.00
2018-08-22T13:16:21.757Z,10.73
2018-08-22T13:18:50.307Z,9.57
2018-08-22T13:21:18.804Z,8.80
2018-08-22T13:23:47.328Z,9.27
2018-08-22T13:26:16.078Z,11.60
2018-08-22T13:28:44.649Z,13.03
2018-08-22T13:31:13.226Z,11.93
2018-08-22T13:33:41.834Z,11.77
2018-08-22T13:36:10.438Z,12.70
2018-08-22T13:38:39.183Z,13.87
2018-08-22T13:41:07.725Z,13.50
2018-08-22T13:43:36.309Z,12.40
2018-08-22T13:46:04.870Z,13.17
2018-08-22T13:48:33.392Z,15.07
2018-08-22T13:51:01.932Z,15.00
2018-08-22T13:53:30.430Z,15.47
2018-08-22T13:55:58.935Z,15.33
2018-08-22T13:58:27.520Z,13.23
2018-08-22T14:00:56.047Z,14.23
2018-08-22T14:03:24.690Z,13.83
2018-08-22T14:05:53.389Z,12.57
2018-08-22T14:08:22.324Z,13.03
2018-08-22T14:10:50.821Z,13.60
2018-08-22T14:13:19.352Z,12.13
2018-08-22T14:15:48.066Z,13.13
2018-08-22T14:18:17.107Z,13.23
2018-08-22T14:20:45.697Z,15.03
2018-08-22T14:23:14.212Z,13.47
2018-08-22T14:25:42.751Z,11.27
2018-08-22T14:28:11.349Z,10.57
2018-08-22T14:30:39.979Z,11.63
2018-08-22T14:33:08.644Z,11.77
2018-08-22T14:35:37.483Z,11.47
2018-08-22T14:38:06.336Z,10.00
2018-08-22T14:40:34.970Z,11.87
2018-08-22T14:43:03.481Z,11.47
2018-08-22T14:45:32.032Z,10.47
2018-08-22T14:48:00.590Z,15.30
2018-08-22T14:50:29.186Z,13.13
2018-08-22T14:52:57.699Z,13.80
2018-08-22T14:55:26.245Z,13.43
2018-08-22T14:57:54.803Z,12.60
2018-08-22T15:00:23.320Z,11.67
2018-08-22T15:02:52.232Z,12.30
2018-08-22T15:05:20.740Z,13.27
2018-08-22T15:07:49.251Z,12.07
2018-08-22T15:10:18.804Z,11.70
2018-08-22T15:12:48.310Z,15.77
2018-08-22T15:15:16.742Z,17.93
2018-08-22T15:17:45.571Z,14.67
2018-08-22T15:20:14.086Z,15.03
2018-08-22T15:22:42.618Z,15.03
2018-08-22T15:25:11.546Z,12.57
2018-08-22T15:27:40.044Z,12.30
2018-08-22T15:30:09.116Z,14.67
2018-08-22T15:32:37.634Z,15.27
2018-08-22T15:35:06.161Z,15.07
2018-08-22T15:37:34.688Z,15.20
2018-08-22T15:40:03.400Z,14.63
2018-08-22T15:42:32.031Z,16.93
2018-08-22T15:45:00.681Z,17.30
2018-08-22T15:47:29.338Z,16.17
2018-08-22T15:49:57.881Z,16.87
2018-08-22T15:52:26.494Z,17.13
2018-08-22T15:55:06.359Z,17.63
2018-08-22T15:57:48.998Z,17.63
2018-08-22T16:00:27.503Z,16.77
2018-08-22T16:02:56.172Z,23.63
2018-08-22T16:05:24.768Z,22.70
2018-08-22T16:07:53.323Z,27.43
2018-08-22T16:10:22.032Z,25.27
2018-08-22T16:12:50.629Z,25.67
2018-08-22T16:15:19.142Z,26.70
2018-08-22T16:17:53.073Z,26.23
2018-08-22T16:20:24.199Z,27.20
2018-08-22T16:22:52.940Z,29.00
2018-08-22T16:25:28.988Z,26.60
2018-08-22T16:27:57.759Z,24.47
2018-08-22T16:30:26.395Z,26.17
2018-08-22T16:32:56.657Z,25.77
2018-08-22T16:35:25.265Z,20.83
2018-08-22T16:38:01.450Z,27.10
2018-08-22T16:40:34.132Z,27.37
2018-08-22T16:43:03.045Z,27.33
2018-08-22T16:45:32.433Z,28.17
2018-08-22T16:48:00.951Z,30.00
2018-08-22T16:50:29.844Z,27.73
2018-08-22T16:52:58.491Z,29.90
2018-08-22T16:55:27.032Z,27.57
2018-08-22T16:57:55.639Z,28.57
2018-08-22T17:00:30.493Z,29.47
2018-08-22T17:02:59.273Z,27.97
2018-08-22T17:05:27.833Z,28.90
2018-08-22T17:07:56.882Z,25.60
2018-08-22T17:10:32.915Z,23.57
2018-08-22T17:13:01.500Z,24.23
2018-08-22T17:15:30.027Z,23.83
2018-08-22T17:17:58.597Z,23.17
2018-08-22T17:20:27.192Z,23.17
2018-08-22T17:22:55.737Z,23.77
2018-08-22T17:25:24.221Z,23.50
2018-08-22T17:27:52.818Z,23.27
2018-08-22T17:30:25.782Z,22.97
2018-08-22T17:32:54.400Z,25.90
2018-08-22T17:35:24.770Z,27.73
2018-08-22T17:38:00.973Z,28.30
2018-08-22T17:40:30.635Z,31.53
2018-08-22T17:42:59.138Z,32.40
2018-08-22T17:45:35.144Z,31.00
2018-08-22T17:48:04.820Z,31.97
2018-08-22T17:50:33.462Z,31.93
2018-08-22T17:53:06.297Z,28.50
2018-08-22T17:55:35.023Z,29.43
2018-08-22T17:58:03.952Z,27.67
2018-08-22T18:00:34.819Z,29.20
2018-08-22T18:03:03.481Z,29.23
2018-08-22T18:05:33.692Z,29.50
2018-08-22T18:08:04.357Z,29.07
2018-08-22T18:10:35.802Z,28.80
2018-08-22T18:13:16.829Z,27.87
2018-08-22T18:15:46.117Z,31.13
2018-08-22T18:18:14.884Z,30.57
2018-08-22T18:20:47.117Z,31.03
2018-08-22T18:23:16.410Z,32.30
2018-08-22T18:25:50.305Z,33.10
2018-08-22T18:28:20.346Z,31.40
2018-08-22T18:30:48.917Z,33.50
2018-08-22T18:33:17.526Z,34.03
2018-08-22T18:35:46.812Z,33.53
2018-08-22T18:38:15.613Z,33.07
2018-08-22T18:40:52.029Z,33.20
2018-08-22T18:43:20.920Z,33.83
2018-08-22T18:45:59.737Z,34.60
2018-08-22T18:48:28.993Z,33.90
2018-08-22T18:50:57.495Z,33.73
2018-08-22T18:53:26.099Z,34.80
2018-08-22T18:56:05.893Z,35.23
2018-08-22T18:58:34.444Z,34.37
2018-08-22T19:01:04.503Z,35.67
2018-08-22T19:03:33.170Z,33.63
2018-08-22T19:06:01.709Z,34.27
2018-08-22T19:08:30.330Z,35.07
2018-08-22T19:10:59.074Z,34.90
2018-08-22T19:13:27.771Z,34.23
2018-08-22T19:15:59.843Z,33.40
2018-08-22T19:18:28.342Z,35.47
2018-08-22T19:20:58.698Z,34.43
2018-08-22T19:23:27.468Z,35.30
2018-08-22T19:25:56.773Z,35.97
2018-08-22T19:28:25.440Z,35.33
2018-08-22T19:30:54.113Z,37.37
2018-08-22T19:33:24.035Z,36.53
2018-08-22T19:35:52.829Z,37.97
2018-08-22T19:38:23.552Z,35.90
2018-08-22T19:40:52.571Z,38.67
2018-08-22T19:43:21.198Z,37.53
2018-08-22T19:45:50.082Z,38.97
2018-08-22T19:48:18.613Z,37.03
2018-08-22T19:50:47.464Z,36.50
2018-08-22T19:53:15.976Z,38.00
2018-08-22T19:55:44.551Z,38.50
2018-08-22T19:58:15.700Z,37.57
2018-08-22T20:00:44.228Z,38.10
2018-08-22T20:03:15.366Z,37.83
2018-08-22T20:05:51.050Z,39.13
2018-08-22T20:08:23.884Z,38.10
2018-08-22T20:10:52.366Z,38.43
2018-08-22T20:13:20.860Z,38.73
2018-08-22T20:15:50.059Z,38.43
2018-08-22T20:18:19.203Z,38.27
2018-08-22T20:20:47.672Z,39.63
2018-08-22T20:23:16.296Z,38.83
2018-08-22T20:25:49.245Z,38.27
2018-08-22T20:28:17.791Z,38.10
2018-08-22T20:30:47.511Z,39.37
2018-08-22T20:33:16.174Z,38.27
2018-08-22T20:35:44.671Z,39.23
2018-08-22T20:38:13.882Z,37.30
2018-08-22T20:40:42.436Z,39.00
2018-08-22T20:43:16.078Z,38.00
2018-08-22T20:45:44.719Z,36.53
2018-08-22T20:48:14.400Z,38.27
2018-08-22T20:50:44.841Z,37.90
2018-08-22T20:53:19.403Z,38.60
2018-08-22T20:55:48.268Z,38.13
2018-08-22T20:58:20.900Z,37.27
2018-08-22T21:00:51.217Z,36.43
2018-08-22T21:03:23.378Z,35.13
2018-08-22T21:05:52.043Z,36.70
2018-08-22T21:08:20.609Z,36.13
2018-08-22T21:10:50.208Z,34.53
2018-08-22T21:13:23.919Z,33.87
2018-08-22T21:15:55.881Z,34.27
2018-08-22T21:18:28.219Z,33.37
2018-08-22T21:21:02.078Z,35.20
2018-08-22T21:23:32.564Z,32.53
2018-08-22T21:26:01.069Z,32.73
2018-08-22T21:28:33.598Z,33.70
2018-08-22T21:31:02.469Z,33.80
2018-08-22T21:33:31.779Z,33.53
2018-08-22T21:36:00.291Z,33.27
2018-08-22T21:38:28.795Z,32.33
2018-08-22T21:40:57.295Z,32.07
2018-08-22T21:43:28.983Z,32.67
2018-08-22T21:46:01.155Z,33.80
2018-08-22T21:48:32.964Z,33.87
2018-08-22T21:51:05.530Z,34.70
2018-08-22T21:53:38.423Z,36.17
2018-08-22T21:56:06.986Z,34.20
2018-08-22T21:58:37.761Z,34.47
2018-08-22T22:01:08.775Z,34.27
2018-08-22T22:03:37.272Z,33.33
2018-08-22T22:06:05.814Z,33.53
2018-08-22T22:08:34.652Z,35.07
2018-08-22T22:11:05.063Z,34.17
2018-08-22T22:13:33.709Z,35.13
2018-08-22T22:16:03.904Z,35.27
2018-08-22T22:18:33.438Z,35.20
2018-08-22T22:21:13.441Z,35.37
2018-08-22T22:23:45.842Z,34.50
2018-08-22T22:26:15.420Z,34.73
2018-08-22T22:28:44.012Z,37.00
2018-08-22T22:31:16.480Z,35.23
2018-08-22T22:33:51.980Z,37.10
2018-08-22T22:36:20.624Z,37.23
2018-08-22T22:38:49.163Z,38.07
2018-08-22T22:41:17.702Z,39.37
2018-08-22T22:43:46.234Z,38.40
2018-08-22T22:46:14.876Z,37.90
2018-08-22T22:48:44.417Z,39.07
2018-08-22T22:51:13.033Z,38.73
2018-08-22T22:53:41.672Z,39.40
2018-08-22T22:56:10.372Z,37.93
2018-08-22T22:58:38.896Z,39.73
2018-08-22T23:01:07.857Z,39.70
2018-08-22T23:03:36.518Z,38.47
2018-08-22T23:06:05.010Z,37.83
2018-08-22T23:08:33.603Z,40.93
2018-08-22T23:11:02.449Z,40.97
2018-08-22T23:13:30.954Z,40.53
2018-08-22T23:15:59.594Z,41.57
2018-08-22T23:18:28.241Z,42.13
2018-08-22T23:20:56.810Z,40.87
2018-08-22T23:23:29.642Z,42.90
2018-08-22T23:26:05.658Z,42.87
2018-08-22T23:28:34.427Z,43.57
2018-08-22T23:31:02.953Z,44.40
2018-08-22T23:33:31.486Z,43.90
2018-08-22T23:36:00.022Z,42.27
2018-08-22T23:38:32.458Z,43.83
2018-08-22T23:41:01.545Z,43.53
2018-08-22T23:43:38.767Z,43.23
2018-08-22T23:46:08.220Z,43.13
2018-08-22T23:48:37.326Z,42.53
2018-08-22T23:51:07.404Z,42.53
2018-08-22T23:53:44.909Z,43.70
2018-08-22T23:56:24.153Z,44.27
2018-08-22T23:58:53.345Z,43.33
